createdAt,value
2022-12-09T00:00:19.350Z,99416.13
2022-12-09T00:10:20.836Z,99409.09
2022-12-09T00:20:22.281Z,99415.00
2022-12-09T00:30:23.536Z,99398.50
2022-12-09T00:40:24.974Z,99395.75
2022-12-09T00:50:26.351Z,99382.63
2022-12-09T01:00:27.710Z,99391.00
2022-12-09T01:10:28.961Z,99395.28
2022-12-09T01:20:30.515Z,99393.13
2022-12-09T01:30:32.086Z,99378.50
2022-12-09T01:40:33.363Z,99391.16
2022-12-09T01:50:34.959Z,99386.81
2022-12-09T02:00:36.495Z,99382.34
2022-12-09T02:10:37.851Z,99360.88
2022-12-09T02:20:39.111Z,99348.81
2022-12-09T02:30:40.455Z,99339.31
2022-12-09T02:40:41.750Z,99324.66
2022-12-09T02:50:43.838Z,99308.25
2022-12-09T03:00:45.196Z,99303.97
2022-12-09T03:10:46.732Z,99288.34
2022-12-09T03:20:48.533Z,99280.50
2022-12-09T03:30:49.943Z,99273.53
2022-12-09T03:40:51.270Z,99279.47
2022-12-09T03:50:52.723Z,99285.44
2022-12-09T04:00:54.263Z,99265.72
2022-12-09T04:10:55.783Z,99270.72
2022-12-09T04:20:57.153Z,99262.06
2022-12-09T04:30:58.795Z,99259.50
2022-12-09T04:41:00.219Z,99251.88
2022-12-09T04:51:01.582Z,99226.22
2022-12-09T05:01:03.304Z,99224.63
2022-12-09T05:11:04.911Z,99222.00
2022-12-09T05:21:06.476Z,99211.19
2022-12-09T05:31:08.025Z,99199.09
2022-12-09T05:41:09.403Z,99195.50
2022-12-09T05:51:11.083Z,99199.84
2022-12-09T06:01:12.559Z,99193.91
2022-12-09T06:11:14.476Z,99193.94
2022-12-09T06:21:15.861Z,99187.91
2022-12-09T06:31:17.375Z,99186.25
2022-12-09T06:41:19.334Z,99190.47
2022-12-09T06:51:20.945Z,99188.78
2022-12-09T07:01:22.747Z,99182.03
2022-12-09T07:11:24.800Z,99184.63
2022-12-09T07:21:26.458Z,99174.41
2022-12-09T07:31:28.572Z,99179.59
2022-12-09T07:41:30.361Z,99174.53
2022-12-09T07:51:32.026Z,99173.91
2022-12-09T08:01:33.773Z,99175.66
2022-12-09T08:11:35.208Z,99175.72
2022-12-09T08:21:36.836Z,99168.16
2022-12-09T08:31:41.605Z,99160.56
2022-12-09T08:41:43.859Z,99156.44
2022-12-09T08:51:45.531Z,99160.91
2022-12-09T09:01:46.966Z,99155.16
2022-12-09T09:11:48.875Z,99146.81
2022-12-09T09:21:50.794Z,99143.50
2022-12-09T09:31:54.637Z,99132.44
2022-12-09T09:41:56.573Z,99114.44
2022-12-09T09:51:58.449Z,99110.16
2022-12-09T10:02:00.374Z,99103.25
2022-12-09T10:12:02.151Z,99102.38
2022-12-09T10:22:03.640Z,99084.31
2022-12-09T10:32:05.861Z,99080.03
2022-12-09T10:42:31.597Z,99067.19
2022-12-09T10:52:36.313Z,99050.84
2022-12-09T11:02:37.834Z,99062.06
2022-12-09T11:12:41.747Z,99043.06
2022-12-09T11:22:44.176Z,99052.50
2022-12-09T11:32:45.555Z,99023.22
2022-12-09T11:42:46.907Z,99029.22
2022-12-09T11:52:48.183Z,99023.22
2022-12-09T12:02:49.665Z,99014.56
2022-12-09T12:12:50.982Z,99018.91
2022-12-09T12:22:54.885Z,99009.38
2022-12-09T12:43:36.510Z,99002.38
2022-12-09T12:53:37.925Z,99007.50
2022-12-09T13:03:39.155Z,99002.34
2022-12-09T13:13:40.419Z,99003.22
2022-12-09T13:23:41.666Z,98995.38
2022-12-09T13:33:43.001Z,98989.19
2022-12-09T13:43:44.351Z,98995.28
2022-12-09T13:53:46.707Z,98997.75
2022-12-09T14:03:48.251Z,99001.25
2022-12-09T14:13:49.489Z,98994.41
2022-12-09T14:23:50.732Z,98990.84
2022-12-09T14:33:51.985Z,99002.03
2022-12-09T14:43:53.283Z,99016.72
2022-12-09T14:53:54.619Z,99038.31
2022-12-09T15:03:56.046Z,99038.28
2022-12-09T15:14:17.345Z,99050.34
2022-12-09T15:24:18.624Z,99053.84
2022-12-09T15:34:26.142Z,99062.50
2022-12-09T15:44:27.757Z,99068.72
2022-12-09T15:54:29.062Z,99079.88
2022-12-09T16:04:30.453Z,99078.19
2022-12-09T16:14:31.796Z,99076.50
2022-12-09T16:24:57.843Z,99071.34
2022-12-09T16:34:54.254Z,99073.06
2022-12-09T16:44:55.515Z,99074.81
2022-12-09T16:54:56.778Z,99079.97
2022-12-09T17:04:58.056Z,99103.22
2022-12-09T17:14:59.379Z,99093.75
2022-12-09T17:25:00.637Z,99104.94
2022-12-09T17:35:01.903Z,99103.22
2022-12-09T17:45:03.346Z,99112.69
2022-12-09T17:55:06.585Z,99117.00
2022-12-09T18:05:09.120Z,99117.88
2022-12-09T18:15:10.410Z,99126.47
2022-12-09T18:25:11.674Z,99139.38
2022-12-09T18:35:12.926Z,99146.28
2022-12-09T18:45:14.225Z,99137.66
2022-12-09T18:55:15.486Z,99142.81
2022-12-09T19:05:16.749Z,99142.81
2022-12-09T19:15:18.001Z,99151.44
2022-12-09T19:25:19.297Z,99153.16
2022-12-09T19:35:20.548Z,99159.19
2022-12-09T19:45:21.813Z,99165.19
2022-12-09T19:55:23.131Z,99178.97
2022-12-09T20:05:24.381Z,99177.25
2022-12-09T20:15:25.616Z,99184.13
2022-12-09T20:25:26.911Z,99190.16
2022-12-09T20:35:28.221Z,99201.34
2022-12-09T20:45:29.501Z,99199.63
2022-12-09T20:55:30.803Z,99208.22
2022-12-09T21:05:32.115Z,99209.97
2022-12-09T21:15:33.419Z,99209.94
2022-12-09T21:25:34.679Z,99210.78
2022-12-09T21:35:36.536Z,99213.38
2022-12-09T21:45:37.863Z,99207.34
2022-12-09T21:55:39.523Z,99221.03
2022-12-09T22:05:40.781Z,99235.72
2022-12-09T22:15:42.031Z,99246.81
2022-12-09T22:25:52.380Z,99245.13
2022-12-09T22:35:53.624Z,99242.53
2022-12-09T22:45:54.914Z,99241.63
2022-12-09T22:55:56.207Z,99255.41
2022-12-09T23:05:57.452Z,99253.66
2022-12-09T23:15:58.803Z,99253.66
2022-12-09T23:26:00.122Z,99262.25
2022-12-09T23:36:01.368Z,99258.84
2022-12-09T23:46:02.711Z,99250.22
2022-12-09T23:56:04.056Z,99244.22
